Time;durP1;ratioP1;P1;durP2;ratioP2;P2;SDS_P1;SDS_P2;PMS_P1;PMS_P2;Temp;Humidity;BMP_temperature;BMP_pressure;BME280_temperature;BME280_humidity;BME280_pressure;Samples;Min_cycle;Max_cycle;Signal;HPM_P1;HPM_P2
2021/12/16 00:02:14;;;;;;;137.80;44.80;;;;;;;;;;4993609;28;99609;-73
2021/12/16 00:05:22;;;;;;;181.52;49.88;;;;;;;;;;4990540;28;100086;-72
2021/12/16 00:07:33;;;;;;;154.57;45.53;;;;;;;;;;4981563;28;100350;-72
2021/12/16 00:10:10;;;;;;;148.98;44.85;;;;;;;;;;5008217;28;99166;-72
2021/12/16 00:29:54;;;;;;;174.20;42.97;;;;;;;;;;5009022;28;101362;-72
2021/12/16 00:34:53;;;;;;;134.40;39.30;;;;;;;;;;4975037;28;98587;-73
2021/12/16 00:37:20;;;;;;;154.90;43.25;;;;;;;;;;5004941;28;101174;-73
2021/12/16 00:39:47;;;;;;;141.68;41.65;;;;;;;;;;4990856;28;98335;-72
2021/12/16 00:42:30;;;;;;;140.00;39.55;;;;;;;;;;5010446;28;98946;-73
2021/12/16 00:45:21;;;;;;;100.50;36.42;;;;;;;;;;5009117;28;99789;-72
2021/12/16 00:47:55;;;;;;;149.18;37.97;;;;;;;;;;5008314;28;99332;-72
2021/12/16 00:56:08;;;;;;;108.60;38.22;;;;;;;;;;5008242;28;98726;-72
2021/12/16 00:58:42;;;;;;;138.70;38.77;;;;;;;;;;5004597;28;99746;-72
2021/12/16 01:01:20;;;;;;;116.57;36.97;;;;;;;;;;5007420;28;99541;-71
2021/12/16 01:04:11;;;;;;;120.65;38.15;;;;;;;;;;5008277;28;99305;-72
2021/12/16 01:06:55;;;;;;;151.07;39.97;;;;;;;;;;4992601;28;101617;-72
2021/12/16 01:34:56;;;;;;;157.95;36.05;;;;;;;;;;5009726;28;98434;-71
2021/12/16 01:40:21;;;;;;;83.60;31.23;;;;;;;;;;5005906;28;98560;-72
2021/12/16 01:50:33;;;;;;;117.50;33.47;;;;;;;;;;4997587;28;101122;-71
2021/12/16 01:55:39;;;;;;;96.63;30.23;;;;;;;;;;4988651;28;98966;-71
2021/12/16 01:58:21;;;;;;;196.88;38.00;;;;;;;;;;5000728;28;101573;-72
2021/12/16 02:00:58;;;;;;;104.15;31.80;;;;;;;;;;4989001;28;97887;-72
2021/12/16 02:03:37;;;;;;;90.85;31.38;;;;;;;;;;4998783;28;99266;-72
2021/12/16 02:06:22;;;;;;;94.70;30.35;;;;;;;;;;4992964;28;102119;-72
2021/12/16 02:08:54;;;;;;;133.07;35.58;;;;;;;;;;4985708;28;99296;-72
2021/12/16 02:28:09;;;;;;;131.48;33.03;;;;;;;;;;4984502;28;100231;-71
2021/12/16 02:35:43;;;;;;;111.82;33.40;;;;;;;;;;4987586;28;100582;-72
2021/12/16 02:38:13;;;;;;;132.05;37.28;;;;;;;;;;4986075;28;98624;-72
2021/12/16 02:40:40;;;;;;;124.65;32.35;;;;;;;;;;4986489;28;101685;-72
2021/12/16 02:48:40;;;;;;;132.82;35.67;;;;;;;;;;5008140;27;99190;-72
2021/12/16 02:51:12;;;;;;;109.28;36.35;;;;;;;;;;4968600;28;99301;-72
2021/12/16 02:53:40;;;;;;;124.43;35.13;;;;;;;;;;4984674;28;99935;-72
2021/12/16 02:56:07;;;;;;;96.50;32.80;;;;;;;;;;4988041;28;99371;-72
2021/12/16 02:58:36;;;;;;;123.50;36.88;;;;;;;;;;5034350;27;98574;-73
2021/12/16 03:01:10;;;;;;;72.00;28.38;;;;;;;;;;4991550;28;99713;-73
2021/12/16 03:03:38;;;;;;;89.28;32.35;;;;;;;;;;4986143;28;101906;-72
2021/12/16 03:06:07;;;;;;;81.43;30.90;;;;;;;;;;5000772;28;98857;-73
2021/12/16 03:08:34;;;;;;;71.38;29.27;;;;;;;;;;4991168;28;99463;-72
2021/12/16 03:14:05;;;;;;;105.25;30.77;;;;;;;;;;5002927;28;101822;-72
2021/12/16 03:16:52;;;;;;;89.47;29.30;;;;;;;;;;4985037;28;101157;-72
2021/12/16 03:19:28;;;;;;;85.45;29.48;;;;;;;;;;4988821;28;98674;-73
2021/12/16 03:22:00;;;;;;;63.58;28.42;;;;;;;;;;5019371;28;101059;-72
2021/12/16 03:30:15;;;;;;;62.88;25.75;;;;;;;;;;5009728;28;99918;-72
2021/12/16 03:38:31;;;;;;;72.70;27.13;;;;;;;;;;5008867;28;100796;-71
2021/12/16 03:40:58;;;;;;;59.00;25.77;;;;;;;;;;5007164;28;98743;-71
2021/12/16 03:43:28;;;;;;;87.65;30.38;;;;;;;;;;5010146;28;99152;-71
2021/12/16 03:48:44;;;;;;;89.25;30.67;;;;;;;;;;4999960;28;98649;-72
2021/12/16 03:51:13;;;;;;;81.38;29.13;;;;;;;;;;5007179;28;100160;-73
2021/12/16 03:53:44;;;;;;;73.13;29.27;;;;;;;;;;5010681;28;102296;-71
2021/12/16 03:56:17;;;;;;;81.38;27.83;;;;;;;;;;4996348;28;102015;-71
2021/12/16 03:59:00;;;;;;;86.45;30.38;;;;;;;;;;4997287;28;101094;-71
2021/12/16 04:01:36;;;;;;;92.95;29.52;;;;;;;;;;5007846;28;98679;-72
2021/12/16 04:04:03;;;;;;;106.45;30.40;;;;;;;;;;5007556;28;101672;-72
2021/12/16 04:06:31;;;;;;;81.50;28.35;;;;;;;;;;5008574;28;101076;-72
2021/12/16 04:08:59;;;;;;;91.88;30.17;;;;;;;;;;5007928;28;99644;-72
2021/12/16 04:11:32;;;;;;;64.72;26.70;;;;;;;;;;4992358;28;100272;-72
2021/12/16 04:14:09;;;;;;;80.15;31.17;;;;;;;;;;4994186;28;100613;-72
2021/12/16 04:16:40;;;;;;;72.00;28.90;;;;;;;;;;5005022;28;99063;-72
2021/12/16 04:19:12;;;;;;;85.32;29.50;;;;;;;;;;4993042;28;100958;-72
2021/12/16 04:21:43;;;;;;;84.32;30.63;;;;;;;;;;5006744;28;100231;-72
2021/12/16 04:24:10;;;;;;;64.68;27.40;;;;;;;;;;5040178;27;101117;-72
2021/12/16 04:26:38;;;;;;;110.97;36.10;;;;;;;;;;4990485;28;99265;-72
2021/12/16 04:29:06;;;;;;;63.80;27.35;;;;;;;;;;4997768;28;98965;-73
2021/12/16 04:31:34;;;;;;;58.88;26.00;;;;;;;;;;5008342;28;100169;-72
2021/12/16 04:34:01;;;;;;;66.75;28.00;;;;;;;;;;5006196;28;99686;-72
2021/12/16 04:36:34;;;;;;;53.78;25.00;;;;;;;;;;5009368;28;97974;-72
2021/12/16 04:39:03;;;;;;;62.10;25.55;;;;;;;;;;5010301;28;100739;-72
2021/12/16 04:41:32;;;;;;;52.65;23.27;;;;;;;;;;5005564;28;98712;-71
2021/12/16 04:43:59;;;;;;;69.93;26.55;;;;;;;;;;5006394;28;101393;-72
2021/12/16 04:46:27;;;;;;;94.40;31.13;;;;;;;;;;4986983;28;101524;-71
2021/12/16 04:48:57;;;;;;;48.63;23.30;;;;;;;;;;4992825;28;98592;-71
2021/12/16 04:51:32;;;;;;;64.53;25.23;;;;;;;;;;5006866;28;101271;-71
2021/12/16 04:53:59;;;;;;;62.13;24.42;;;;;;;;;;5007328;28;100224;-71
2021/12/16 04:56:28;;;;;;;74.30;29.08;;;;;;;;;;5008491;28;98609;-71
2021/12/16 04:59:08;;;;;;;66.22;26.35;;;;;;;;;;5006348;28;101667;-72
2021/12/16 05:01:36;;;;;;;63.58;28.02;;;;;;;;;;5010531;28;101380;-72
2021/12/16 05:04:03;;;;;;;61.65;24.27;;;;;;;;;;5001935;28;100362;-72
2021/12/16 05:06:29;;;;;;;63.33;25.30;;;;;;;;;;4993826;28;102059;-72
2021/12/16 05:08:56;;;;;;;68.55;26.83;;;;;;;;;;4990931;28;99785;-72
2021/12/16 05:11:32;;;;;;;53.00;24.48;;;;;;;;;;5006998;28;101950;-72
2021/12/16 05:13:59;;;;;;;48.80;23.02;;;;;;;;;;5006255;28;99443;-72
2021/12/16 05:16:26;;;;;;;56.78;24.83;;;;;;;;;;5008234;28;98604;-72
2021/12/16 05:18:56;;;;;;;65.50;25.88;;;;;;;;;;4997875;28;99276;-72
2021/12/16 05:24:15;;;;;;;59.65;25.52;;;;;;;;;;5008008;28;101488;-72
2021/12/16 05:24:27;;;;;;;58.85;24.08;;;;;;;;;;5002016;28;101542;-72
2021/12/16 05:27:12;;;;;;;61.92;24.67;;;;;;;;;;5007608;28;101235;-72
2021/12/16 05:29:40;;;;;;;65.72;27.27;;;;;;;;;;5005575;28;98670;-72
2021/12/16 05:32:09;;;;;;;74.78;28.80;;;;;;;;;;5007746;28;101107;-73
2021/12/16 05:34:35;;;;;;;53.63;25.40;;;;;;;;;;4993750;28;102808;-73
2021/12/16 05:37:04;;;;;;;72.00;28.70;;;;;;;;;;4989750;28;98501;-73
2021/12/16 05:39:33;;;;;;;74.13;29.00;;;;;;;;;;5001420;28;99211;-71
2021/12/16 05:42:38;;;;;;;80.68;29.88;;;;;;;;;;4965626;28;99103;-72
2021/12/16 05:45:05;;;;;;;89.45;32.55;;;;;;;;;;4931840;28;98711;-72
2021/12/16 05:47:32;;;;;;;75.20;27.70;;;;;;;;;;4952628;28;101896;-72
2021/12/16 05:49:59;;;;;;;60.72;27.05;;;;;;;;;;4998292;28;99870;-72
2021/12/16 05:52:25;;;;;;;77.90;28.23;;;;;;;;;;5008296;28;102259;-72
2021/12/16 05:54:52;;;;;;;80.97;31.35;;;;;;;;;;5006399;28;100271;-72
2021/12/16 05:57:25;;;;;;;59.15;26.27;;;;;;;;;;5007852;28;98564;-72
2021/12/16 05:59:59;;;;;;;70.82;28.52;;;;;;;;;;5004703;28;101329;-72
2021/12/16 06:02:26;;;;;;;69.57;28.95;;;;;;;;;;5003240;28;99208;-72
2021/12/16 06:04:53;;;;;;;74.10;29.38;;;;;;;;;;5004389;28;100254;-71
2021/12/16 06:07:20;;;;;;;53.38;26.77;;;;;;;;;;5010542;28;101907;-71
2021/12/16 06:09:47;;;;;;;68.90;27.67;;;;;;;;;;5005447;28;98575;-71
2021/12/16 06:12:14;;;;;;;75.65;30.70;;;;;;;;;;5008676;28;99966;-71
2021/12/16 06:14:52;;;;;;;85.90;30.90;;;;;;;;;;5006671;28;99547;-72
2021/12/16 06:26:27;;;;;;;92.22;31.92;;;;;;;;;;4997573;28;99827;-72
2021/12/16 06:28:37;;;;;;;68.10;26.52;;;;;;;;;;4988932;28;99829;-72
2021/12/16 06:31:04;;;;;;;77.65;30.40;;;;;;;;;;5000307;28;100323;-71
2021/12/16 06:33:31;;;;;;;79.82;28.77;;;;;;;;;;5008148;28;100096;-72
2021/12/16 06:35:57;;;;;;;56.13;25.27;;;;;;;;;;5006771;28;100181;-71
2021/12/16 06:38:25;;;;;;;60.15;26.10;;;;;;;;;;4989607;28;99048;-71
2021/12/16 06:41:15;;;;;;;50.67;22.85;;;;;;;;;;4996929;28;99060;-72
2021/12/16 06:44:06;;;;;;;60.83;27.88;;;;;;;;;;5007768;28;98726;-72
2021/12/16 06:46:36;;;;;;;57.38;25.20;;;;;;;;;;5006179;28;98685;-72
2021/12/16 06:49:04;;;;;;;72.15;30.42;;;;;;;;;;5008541;28;100148;-72
2021/12/16 06:51:40;;;;;;;102.93;32.90;;;;;;;;;;5002222;28;100980;-70
2021/12/16 06:54:12;;;;;;;63.28;27.08;;;;;;;;;;5011332;28;99201;-71
2021/12/16 06:56:49;;;;;;;67.63;28.08;;;;;;;;;;4992470;28;99433;-71
2021/12/16 06:59:32;;;;;;;76.20;28.35;;;;;;;;;;5000500;28;99013;-70
2021/12/16 07:02:35;;;;;;;87.32;31.80;;;;;;;;;;5008328;28;100033;-70
2021/12/16 07:04:48;;;;;;;62.35;26.85;;;;;;;;;;5003121;28;100479;-71
2021/12/16 07:07:14;;;;;;;78.00;28.08;;;;;;;;;;4996458;28;98582;-71
2021/12/16 07:09:41;;;;;;;80.03;30.42;;;;;;;;;;5004281;28;99120;-72
2021/12/16 07:12:10;;;;;;;72.82;28.00;;;;;;;;;;5007313;28;100030;-72
2021/12/16 07:14:39;;;;;;;56.00;25.73;;;;;;;;;;5005191;28;98777;-73
2021/12/16 07:17:07;;;;;;;54.92;23.90;;;;;;;;;;4999784;28;99914;-74
2021/12/16 07:19:33;;;;;;;54.70;22.92;;;;;;;;;;5003146;28;99126;-73
2021/12/16 07:22:00;;;;;;;65.70;27.02;;;;;;;;;;4993253;28;100151;-72
2021/12/16 07:24:26;;;;;;;58.65;24.30;;;;;;;;;;5000968;28;100198;-73
2021/12/16 07:26:53;;;;;;;44.72;24.30;;;;;;;;;;4989551;28;99180;-72
2021/12/16 07:29:19;;;;;;;48.70;23.80;;;;;;;;;;4979488;28;100495;-72
2021/12/16 07:31:45;;;;;;;59.05;27.05;;;;;;;;;;4990147;28;100157;-72
2021/12/16 07:34:12;;;;;;;49.40;24.17;;;;;;;;;;4983736;28;98090;-72
2021/12/16 07:36:40;;;;;;;49.17;22.48;;;;;;;;;;4990094;28;99007;-72
2021/12/16 07:39:08;;;;;;;52.42;22.73;;;;;;;;;;4982575;28;98570;-72
2021/12/16 07:41:34;;;;;;;56.47;24.73;;;;;;;;;;4976494;28;99494;-72
2021/12/16 07:44:11;;;;;;;43.10;22.55;;;;;;;;;;4969704;28;99982;-72
2021/12/16 07:46:47;;;;;;;37.40;20.83;;;;;;;;;;4975226;28;98525;-72
2021/12/16 07:49:21;;;;;;;41.03;23.45;;;;;;;;;;4987107;28;100188;-72
2021/12/16 07:51:48;;;;;;;37.60;21.17;;;;;;;;;;4979441;28;99521;-72
2021/12/16 07:54:16;;;;;;;31.58;18.20;;;;;;;;;;4980071;28;98964;-72
2021/12/16 07:56:44;;;;;;;34.97;20.83;;;;;;;;;;5003047;28;99567;-73
2021/12/16 07:59:11;;;;;;;33.33;20.23;;;;;;;;;;4981826;28;98936;-73
2021/12/16 08:01:38;;;;;;;33.67;20.40;;;;;;;;;;4986347;28;99801;-73
2021/12/16 08:04:06;;;;;;;27.60;17.77;;;;;;;;;;4997518;28;100867;-73
2021/12/16 08:06:33;;;;;;;38.47;20.95;;;;;;;;;;4990936;28;101453;-73
2021/12/16 08:09:02;;;;;;;31.90;18.73;;;;;;;;;;4985930;28;101096;-72
2021/12/16 08:11:29;;;;;;;27.05;17.88;;;;;;;;;;4986550;28;100182;-72
2021/12/16 08:14:02;;;;;;;26.97;18.60;;;;;;;;;;4985208;28;98597;-72
2021/12/16 08:16:28;;;;;;;30.65;19.63;;;;;;;;;;4988500;28;100060;-73
2021/12/16 08:18:55;;;;;;;41.90;19.55;;;;;;;;;;4996243;28;100274;-73
2021/12/16 08:21:24;;;;;;;33.17;19.05;;;;;;;;;;4999523;28;99034;-72
2021/12/16 08:23:50;;;;;;;35.35;22.30;;;;;;;;;;4999003;28;99487;-73
2021/12/16 08:26:17;;;;;;;54.13;22.75;;;;;;;;;;5000415;28;98788;-72
2021/12/16 08:28:44;;;;;;;82.65;29.00;;;;;;;;;;4992498;28;100382;-72
2021/12/16 08:31:11;;;;;;;94.25;32.85;;;;;;;;;;4981624;28;101046;-73
2021/12/16 08:33:38;;;;;;;149.38;29.77;;;;;;;;;;4997699;28;98659;-72
2021/12/16 08:36:06;;;;;;;141.85;29.05;;;;;;;;;;4993300;28;99151;-72
2021/12/16 08:38:33;;;;;;;256.23;34.30;;;;;;;;;;4985712;28;100679;-71
2021/12/16 08:41:04;;;;;;;234.50;34.22;;;;;;;;;;4983737;28;100186;-71
2021/12/16 08:43:30;;;;;;;191.52;26.58;;;;;;;;;;5012151;28;99218;-72
2021/12/16 08:45:57;;;;;;;266.02;24.40;;;;;;;;;;5008473;28;98520;-72
2021/12/16 08:48:23;;;;;;;316.90;31.90;;;;;;;;;;5011001;28;99296;-71
2021/12/16 08:50:50;;;;;;;342.33;32.13;;;;;;;;;;5009134;28;99438;-71
2021/12/16 08:53:18;;;;;;;192.50;30.92;;;;;;;;;;5010097;28;98508;-71
2021/12/16 08:55:45;;;;;;;290.27;29.95;;;;;;;;;;5009747;28;100338;-71
2021/12/16 08:58:12;;;;;;;268.38;27.63;;;;;;;;;;5008642;28;99585;-70
2021/12/16 09:00:41;;;;;;;156.88;25.17;;;;;;;;;;5002073;28;99139;-70
2021/12/16 09:03:07;;;;;;;123.63;22.95;;;;;;;;;;4990363;28;100090;-71
2021/12/16 09:05:34;;;;;;;171.13;24.13;;;;;;;;;;5008963;28;100524;-72
2021/12/16 09:08:00;;;;;;;78.05;21.83;;;;;;;;;;4999424;28;99948;-72
2021/12/16 09:10:30;;;;;;;23.80;18.13;;;;;;;;;;4989270;28;100108;-71
2021/12/16 09:13:03;;;;;;;25.92;18.58;;;;;;;;;;4990063;28;97844;-72
2021/12/16 09:15:37;;;;;;;29.70;18.45;;;;;;;;;;4989596;28;99388;-72
2021/12/16 09:18:04;;;;;;;23.73;17.63;;;;;;;;;;4989723;28;99719;-72
2021/12/16 09:20:31;;;;;;;22.92;18.08;;;;;;;;;;4989283;28;99842;-71
2021/12/16 09:22:57;;;;;;;23.52;16.70;;;;;;;;;;4990896;28;100566;-71
2021/12/16 09:25:24;;;;;;;20.73;16.23;;;;;;;;;;4980158;28;101173;-72
2021/12/16 09:27:50;;;;;;;23.25;16.45;;;;;;;;;;4999523;28;99119;-71
2021/12/16 09:30:18;;;;;;;22.73;17.17;;;;;;;;;;4984518;28;100403;-72
2021/12/16 09:32:45;;;;;;;20.50;16.25;;;;;;;;;;4992622;28;100111;-71
2021/12/16 09:35:12;;;;;;;18.52;16.05;;;;;;;;;;4987505;28;100399;-71
2021/12/16 09:37:38;;;;;;;18.67;16.75;;;;;;;;;;5006531;28;100322;-72
2021/12/16 09:40:07;;;;;;;19.35;16.00;;;;;;;;;;5004032;28;98611;-72
2021/12/16 09:42:35;;;;;;;18.70;15.30;;;;;;;;;;4983726;28;100258;-72
2021/12/16 09:45:03;;;;;;;17.70;15.60;;;;;;;;;;4988785;28;100542;-72
2021/12/16 09:47:30;;;;;;;21.50;16.15;;;;;;;;;;5009098;28;98572;-72
2021/12/16 09:49:56;;;;;;;19.35;16.42;;;;;;;;;;4985362;28;100260;-71
2021/12/16 09:52:23;;;;;;;28.02;18.65;;;;;;;;;;4992513;28;100148;-71
2021/12/16 09:54:49;;;;;;;28.02;18.30;;;;;;;;;;5007930;28;101122;-71
2021/12/16 09:57:16;;;;;;;21.88;14.45;;;;;;;;;;5003768;28;99690;-70
2021/12/16 09:59:43;;;;;;;32.08;18.52;;;;;;;;;;4992377;28;99137;-72
2021/12/16 10:02:12;;;;;;;18.95;15.40;;;;;;;;;;4983281;28;99133;-72
2021/12/16 10:04:39;;;;;;;26.55;21.02;;;;;;;;;;4988725;28;100287;-72
2021/12/16 10:07:10;;;;;;;25.23;20.02;;;;;;;;;;5006211;28;98534;-72
2021/12/16 10:09:37;;;;;;;29.38;18.65;;;;;;;;;;5005719;28;99963;-72
2021/12/16 10:12:10;;;;;;;30.63;19.48;;;;;;;;;;4999442;28;98593;-73
2021/12/16 10:17:41;;;;;;;36.05;22.15;;;;;;;;;;4990093;28;100417;-73
2021/12/16 10:20:20;;;;;;;30.90;21.80;;;;;;;;;;4995374;28;100825;-72
2021/12/16 10:22:51;;;;;;;;;;;;;;;;;;5008030;28;99962;-72
2021/12/16 10:25:17;;;;;;;26.08;19.95;;;;;;;;;;4993467;28;129639;-75
2021/12/16 10:28:10;;;;;;;34.08;21.63;;;;;;;;;;5002761;28;99021;-74
2021/12/16 10:30:42;;;;;;;43.67;22.87;;;;;;;;;;4996752;28;99516;-77
2021/12/16 10:33:09;;;;;;;30.67;20.83;;;;;;;;;;4989292;28;99919;-72
2021/12/16 10:35:36;;;;;;;44.97;25.33;;;;;;;;;;4976564;28;101864;-73
2021/12/16 10:38:04;;;;;;;39.08;24.25;;;;;;;;;;4981053;28;100585;-74
2021/12/16 10:40:43;;;;;;;27.83;17.90;;;;;;;;;;4986866;27;100667;-73
2021/12/16 10:43:15;;;;;;;38.88;22.98;;;;;;;;;;4979391;28;100889;-73
2021/12/16 10:45:50;;;;;;;39.10;23.98;;;;;;;;;;4999038;28;100591;-72
2021/12/16 10:48:25;;;;;;;43.55;25.75;;;;;;;;;;4982982;28;98571;-73
2021/12/16 10:50:54;;;;;;;40.13;24.85;;;;;;;;;;4982292;28;99525;-72
2021/12/16 10:53:40;;;;;;;45.28;24.35;;;;;;;;;;4973439;28;99838;-72
2021/12/16 10:56:06;;;;;;;41.63;22.80;;;;;;;;;;5007255;28;99186;-72
2021/12/16 10:58:50;;;;;;;42.42;23.77;;;;;;;;;;5003874;28;100465;-72
2021/12/16 11:01:36;;;;;;;44.42;25.02;;;;;;;;;;5007408;28;99255;-73
2021/12/16 11:04:04;;;;;;;52.78;25.02;;;;;;;;;;5003522;28;100213;-77
2021/12/16 11:06:33;;;;;;;43.78;24.40;;;;;;;;;;4999075;28;101998;-74
2021/12/16 11:09:18;;;;;;;42.75;24.45;;;;;;;;;;4993905;28;99607;-72
2021/12/16 11:11:44;;;;;;;42.00;22.65;;;;;;;;;;5002361;28;99747;-70
2021/12/16 11:14:10;;;;;;;41.10;24.38;;;;;;;;;;4992666;28;100765;-71
2021/12/16 11:16:37;;;;;;;39.60;23.17;;;;;;;;;;4986495;28;100074;-73
2021/12/16 11:19:04;;;;;;;39.15;20.95;;;;;;;;;;5011480;28;99068;-72
2021/12/16 11:21:31;;;;;;;42.47;23.25;;;;;;;;;;5001902;28;100737;-71
2021/12/16 11:23:58;;;;;;;40.40;22.42;;;;;;;;;;5003084;28;100448;-71
2021/12/16 11:26:29;;;;;;;45.28;23.30;;;;;;;;;;4984648;28;100898;-73
2021/12/16 11:28:55;;;;;;;40.28;20.95;;;;;;;;;;4982453;27;99210;-72
2021/12/16 11:31:27;;;;;;;50.90;23.25;;;;;;;;;;4984944;28;100177;-72
2021/12/16 11:33:58;;;;;;;35.13;22.00;;;;;;;;;;4975294;28;102466;-72
2021/12/16 11:36:26;;;;;;;53.92;23.33;;;;;;;;;;4974971;28;98985;-71
2021/12/16 11:38:55;;;;;;;39.60;21.15;;;;;;;;;;4994394;28;102102;-71
2021/12/16 11:41:22;;;;;;;39.97;22.50;;;;;;;;;;4991911;28;100624;-73
2021/12/16 11:44:04;;;;;;;30.23;18.90;;;;;;;;;;4987015;28;100655;-73
2021/12/16 11:46:49;;;;;;;43.63;20.13;;;;;;;;;;4991340;28;100256;-73
2021/12/16 11:49:37;;;;;;;37.08;19.13;;;;;;;;;;4990064;28;99251;-73
2021/12/16 11:52:12;;;;;;;39.28;20.13;;;;;;;;;;4980486;28;100147;-73
2021/12/16 11:54:41;;;;;;;37.75;20.42;;;;;;;;;;4993119;28;102915;-71
2021/12/16 11:57:14;;;;;;;37.38;21.83;;;;;;;;;;4985225;28;100114;-72
2021/12/16 11:59:54;;;;;;;36.75;19.83;;;;;;;;;;4982507;28;100121;-74
2021/12/16 12:02:22;;;;;;;44.22;20.25;;;;;;;;;;4995804;28;99380;-75
2021/12/16 12:04:49;;;;;;;37.03;19.38;;;;;;;;;;4988825;28;98855;-76
2021/12/16 12:07:16;;;;;;;36.95;20.40;;;;;;;;;;4983070;28;100251;-76
2021/12/16 12:09:51;;;;;;;33.50;19.95;;;;;;;;;;4978812;28;98433;-76
2021/12/16 12:12:38;;;;;;;32.13;19.50;;;;;;;;;;4975113;28;98814;-76
2021/12/16 12:15:05;;;;;;;39.72;21.73;;;;;;;;;;4983375;28;100328;-76
2021/12/16 12:17:41;;;;;;;31.35;21.30;;;;;;;;;;4988745;28;100627;-74
2021/12/16 12:20:08;;;;;;;33.88;20.95;;;;;;;;;;4988407;28;100783;-72
2021/12/16 12:22:34;;;;;;;37.42;22.33;;;;;;;;;;4986100;28;101214;-72
2021/12/16 12:25:01;;;;;;;33.90;21.33;;;;;;;;;;4986378;28;98566;-71
2021/12/16 12:27:27;;;;;;;35.40;21.88;;;;;;;;;;4985272;28;100303;-71
2021/12/16 12:30:01;;;;;;;32.42;20.80;;;;;;;;;;4992908;28;99925;-71
2021/12/16 12:32:32;;;;;;;30.90;18.33;;;;;;;;;;4987866;28;99321;-71
2021/12/16 12:35:06;;;;;;;34.03;23.15;;;;;;;;;;4987245;28;100649;-72
2021/12/16 12:37:36;;;;;;;37.08;23.63;;;;;;;;;;4993228;28;100845;-72
2021/12/16 12:40:12;;;;;;;46.25;24.58;;;;;;;;;;4987223;28;101100;-72
2021/12/16 12:42:40;;;;;;;44.15;27.70;;;;;;;;;;4997557;28;102415;-71
2021/12/16 12:45:08;;;;;;;46.80;25.75;;;;;;;;;;5002699;28;98674;-72
2021/12/16 12:47:37;;;;;;;43.10;28.33;;;;;;;;;;4980287;28;100714;-72
2021/12/16 12:50:08;;;;;;;43.05;26.20;;;;;;;;;;4979930;28;98855;-72
2021/12/16 12:52:36;;;;;;;39.03;26.40;;;;;;;;;;4977786;28;101105;-72
2021/12/16 12:55:13;;;;;;;46.95;28.52;;;;;;;;;;4983765;28;101069;-72
2021/12/16 12:57:40;;;;;;;42.20;27.35;;;;;;;;;;4972911;28;98810;-72
2021/12/16 13:00:22;;;;;;;43.70;28.55;;;;;;;;;;4980297;28;99299;-72
2021/12/16 13:02:54;;;;;;;51.78;30.05;;;;;;;;;;4999734;28;100597;-71
2021/12/16 13:05:21;;;;;;;51.83;28.35;;;;;;;;;;4984309;28;98582;-71
2021/12/16 13:07:58;;;;;;;40.53;27.83;;;;;;;;;;4984871;28;100708;-71
2021/12/16 13:10:28;;;;;;;43.13;26.80;;;;;;;;;;4978975;28;100376;-71
2021/12/16 13:13:15;;;;;;;40.13;27.50;;;;;;;;;;4988425;28;100142;-72
2021/12/16 13:26:46;;;;;;;48.33;27.42;;;;;;;;;;4936035;28;100099;-71
2021/12/16 13:29:28;;;;;;;47.58;28.77;;;;;;;;;;4989517;28;99397;-71
2021/12/16 13:32:17;;;;;;;29.88;22.60;;;;;;;;;;4975607;28;100490;-72
2021/12/16 13:35:12;;;;;;;32.45;22.73;;;;;;;;;;4988590;28;99508;-72
2021/12/16 13:37:40;;;;;;;33.30;23.80;;;;;;;;;;5005581;28;100298;-72
2021/12/16 13:40:16;;;;;;;38.85;26.48;;;;;;;;;;4992141;28;99396;-72
2021/12/16 13:42:43;;;;;;;50.72;31.45;;;;;;;;;;4984120;28;99683;-72
2021/12/16 13:45:21;;;;;;;63.20;31.42;;;;;;;;;;4987068;28;99618;-72
2021/12/16 13:48:07;;;;;;;119.55;40.60;;;;;;;;;;5006697;28;98927;-70
2021/12/16 14:02:38;;;;;;;120.30;40.00;;;;;;;;;;4976030;28;101008;-73
2021/12/16 14:07:58;;;;;;;145.82;42.00;;;;;;;;;;4962825;28;102039;-72
2021/12/16 14:10:56;;;;;;;94.80;39.30;;;;;;;;;;4977679;28;100300;-72
2021/12/16 14:16:23;;;;;;;133.45;45.72;;;;;;;;;;4985698;28;100583;-70
2021/12/16 14:25:14;;;;;;;117.03;45.45;;;;;;;;;;5004966;28;98532;-71
2021/12/16 14:46:59;;;;;;;731.33;69.95;;;;;;;;;;4990405;28;100674;-71
2021/12/16 14:49:33;;;;;;;507.52;62.00;;;;;;;;;;4975162;28;99529;-71
2021/12/16 14:51:59;;;;;;;368.10;48.50;;;;;;;;;;4980187;28;99475;-71
2021/12/16 14:54:26;;;;;;;472.75;51.50;;;;;;;;;;4976246;28;99432;-71
2021/12/16 14:56:57;;;;;;;512.13;55.03;;;;;;;;;;4975880;28;100493;-71
2021/12/16 14:59:25;;;;;;;414.13;46.85;;;;;;;;;;4980305;28;100126;-71
2021/12/16 15:01:53;;;;;;;600.85;60.47;;;;;;;;;;4981808;28;99398;-72
2021/12/16 15:04:24;;;;;;;449.42;49.20;;;;;;;;;;4981384;28;100404;-73
2021/12/16 15:07:00;;;;;;;534.60;53.70;;;;;;;;;;5001110;28;99778;-72
2021/12/16 15:09:29;;;;;;;626.47;65.70;;;;;;;;;;5010725;28;98593;-72
2021/12/16 15:12:09;;;;;;;648.72;57.08;;;;;;;;;;5004620;28;100716;-74
2021/12/16 15:35:47;;;;;;;393.80;59.83;;;;;;;;;;4967570;28;103056;-72
2021/12/16 15:37:37;;;;;;;493.20;67.45;;;;;;;;;;4998938;28;98627;-72
2021/12/16 15:40:16;;;;;;;423.60;59.10;;;;;;;;;;4982909;28;100581;-72
2021/12/16 15:45:12;;;;;;;268.98;51.92;;;;;;;;;;5009380;28;98610;-72
2021/12/16 15:47:41;;;;;;;174.35;45.28;;;;;;;;;;5004694;28;100288;-74
2021/12/16 15:50:08;;;;;;;198.35;44.00;;;;;;;;;;4993276;28;101114;-72
2021/12/16 15:52:42;;;;;;;328.65;49.28;;;;;;;;;;5000910;28;100195;-71
2021/12/16 15:55:14;;;;;;;154.20;45.10;;;;;;;;;;4985603;28;100006;-71
2021/12/16 15:57:41;;;;;;;193.00;47.63;;;;;;;;;;5013993;28;100375;-71
2021/12/16 16:00:12;;;;;;;245.68;45.80;;;;;;;;;;5002506;28;99302;-72
2021/12/16 16:02:39;;;;;;;304.25;55.85;;;;;;;;;;4990419;28;100740;-71
2021/12/16 16:05:07;;;;;;;133.63;34.08;;;;;;;;;;4985960;28;100744;-69
2021/12/16 16:07:33;;;;;;;143.40;27.20;;;;;;;;;;4995727;28;99581;-70
2021/12/16 16:09:59;;;;;;;282.38;45.03;;;;;;;;;;4987432;28;99933;-72
2021/12/16 16:12:29;;;;;;;339.83;46.00;;;;;;;;;;5003908;28;98649;-71
2021/12/16 16:15:02;;;;;;;274.38;44.67;;;;;;;;;;5008532;28;101282;-73
2021/12/16 16:17:30;;;;;;;195.88;39.67;;;;;;;;;;5011726;28;100012;-72
2021/12/16 16:19:57;;;;;;;274.42;51.70;;;;;;;;;;5010541;28;100111;-73
2021/12/16 16:22:23;;;;;;;129.48;38.25;;;;;;;;;;4989022;28;100658;-72
2021/12/16 16:24:52;;;;;;;285.27;56.33;;;;;;;;;;5001921;28;98639;-72
2021/12/16 16:27:23;;;;;;;180.13;44.65;;;;;;;;;;4993963;28;99676;-74
2021/12/16 16:29:54;;;;;;;199.75;47.28;;;;;;;;;;4989060;28;100283;-72
2021/12/16 16:32:23;;;;;;;334.25;49.42;;;;;;;;;;4979606;28;98122;-72
2021/12/16 16:34:51;;;;;;;393.65;55.88;;;;;;;;;;4976545;28;99250;-71
2021/12/16 16:37:25;;;;;;;352.10;50.53;;;;;;;;;;5007915;28;101090;-71
2021/12/16 16:39:53;;;;;;;246.55;44.35;;;;;;;;;;5006164;28;100219;-72
2021/12/16 16:42:20;;;;;;;500.17;58.95;;;;;;;;;;5004385;28;100672;-70
2021/12/16 16:44:52;;;;;;;345.38;51.72;;;;;;;;;;4986396;28;99426;-72
2021/12/16 16:47:30;;;;;;;474.77;57.40;;;;;;;;;;4992459;28;100225;-72
2021/12/16 16:49:58;;;;;;;443.33;55.50;;;;;;;;;;4988007;28;100194;-72
2021/12/16 16:52:29;;;;;;;476.50;56.28;;;;;;;;;;4977954;28;98538;-70
2021/12/16 16:55:05;;;;;;;367.52;48.60;;;;;;;;;;5003894;28;100564;-71
2021/12/16 16:57:33;;;;;;;404.02;53.22;;;;;;;;;;4984293;28;99779;-70
2021/12/16 17:00:03;;;;;;;233.00;41.88;;;;;;;;;;4984468;28;98591;-71
2021/12/16 17:02:32;;;;;;;227.32;43.45;;;;;;;;;;4989520;28;100121;-71
2021/12/16 17:05:07;;;;;;;364.95;64.22;;;;;;;;;;4997603;28;99256;-72
2021/12/16 17:07:57;;;;;;;220.68;46.10;;;;;;;;;;4989366;28;99910;-72
2021/12/16 17:10:29;;;;;;;270.58;50.03;;;;;;;;;;4980934;28;100474;-73
2021/12/16 17:13:00;;;;;;;214.13;49.40;;;;;;;;;;4985837;28;100257;-73
2021/12/16 17:15:37;;;;;;;290.20;62.53;;;;;;;;;;4985363;28;99513;-71
2021/12/16 17:18:04;;;;;;;237.20;52.90;;;;;;;;;;4991373;28;100299;-70
2021/12/16 17:20:30;;;;;;;226.52;49.45;;;;;;;;;;5004043;28;100337;-71
2021/12/16 17:22:59;;;;;;;187.38;51.15;;;;;;;;;;5007043;28;99349;-71
2021/12/16 17:25:26;;;;;;;220.70;48.28;;;;;;;;;;4983386;28;100233;-73
2021/12/16 17:27:55;;;;;;;193.43;52.30;;;;;;;;;;4989694;28;100026;-73
2021/12/16 17:30:24;;;;;;;260.50;52.80;;;;;;;;;;4980036;28;101313;-72
2021/12/16 17:32:52;;;;;;;66.57;27.67;;;;;;;;;;4983755;28;100681;-71
2021/12/16 17:35:21;;;;;;;113.85;31.38;;;;;;;;;;4979837;28;100262;-71
2021/12/16 17:37:53;;;;;;;113.57;29.13;;;;;;;;;;4995609;28;99922;-71
2021/12/16 17:40:22;;;;;;;52.30;24.02;;;;;;;;;;4984633;28;100138;-71
2021/12/16 17:42:52;;;;;;;118.47;29.20;;;;;;;;;;5001961;28;100587;-72
2021/12/16 17:45:21;;;;;;;70.70;24.83;;;;;;;;;;4992078;28;100578;-73
2021/12/16 17:47:48;;;;;;;82.35;27.13;;;;;;;;;;5003930;28;98379;-74